Stations météo

réclame
Mon MeteoGroup
Alto De Los Leones, Espagne (8217): Température de l'air & dewpoint: 18.01.2018 10:00:00 - 24.01.2018 10:00:00 (CET)Alto De Los Leones, Espagne (8217): Vitesse du vent & gusts: 18.01.2018 10:00:00 - 24.01.2018 10:00:00 (CET)Alto De Los Leones, Espagne (8217): Direction du vent: 18.01.2018 10:00:00 - 24.01.2018 10:00:00 (CET)Alto De Los Leones, Espagne (8217): Quantités de précipitations: 18.01.2018 10:00:00 - 24.01.2018 10:00:00 (CET)
Date & Time tt [°C] td [°C] ff [km/h] ff [knt] fx [km/h] fx [knt] dd rr [mm]
24.01.2018 10:00:00 7,0 -2,7 14 7 18 10 SE 0,0
24.01.2018 09:00:00 5,3 -2,7 13 7 19 10 ESE 0,0
24.01.2018 08:00:00 4,3 -3,9 14 8 19 11 ESE 0,0
24.01.2018 07:00:00 4,7 -3,0 13 7 17 9 ESE -
24.01.2018 06:00:00 4,4 -4,5 13 7 21 11 ESE 0,0
24.01.2018 05:00:00 5,1 -4,5 16 9 23 13 SE 0,0
24.01.2018 04:00:00 5,2 -4,5 14 8 22 12 ESE 0,0
24.01.2018 03:00:00 5,6 -4,8 17 9 23 12 ESE 0,0
24.01.2018 02:00:00 5,9 -4,8 17 9 25 13 SE 0,0
24.01.2018 01:00:00 5,9 -5,1 16 9 25 14 SE -
24.01.2018 00:00:00 6,5 -5,1 16 9 23 12 SE 0,0
23.01.2018 23:00:00 6,7 -5,1 16 8 22 12 SE 0,0
23.01.2018 22:00:00 7,3 -4,5 16 9 22 12 ESE 0,0
23.01.2018 21:00:00 7,5 -5,4 14 8 18 10 SE 0,0
23.01.2018 20:00:00 5,3 -7,1 1 1 13 7 WNW 0,0
23.01.2018 19:00:00 4,6 -7,1 11 6 14 8 WNW -
23.01.2018 18:00:00 6,2 -4,8 8 5 15 8 WNW 0,0
23.01.2018 17:00:00 8,6 -4,5 11 6 18 10 WNW 0,0
23.01.2018 16:00:00 9,7 -6,7 13 7 20 11 NW 0,0
23.01.2018 15:00:00 9,9 -7,5 13 7 26 14 WNW 0,0
23.01.2018 14:00:00 10,2 -7,8 16 9 66 36 WNW 0,0
23.01.2018 13:00:00 7,9 -8,6 21 11 29 16 NW -
23.01.2018 12:00:00 7,8 -7,5 13 7 19 10 NW 0,0
23.01.2018 11:00:00 6,0 -9,4 11 6 15 8 WNW 0,0
23.01.2018 10:00:00 4,8 -10,3 12 7 16 8 WNW 0,0
23.01.2018 09:00:00 5,4 -11,2 10 5 13 7 WNW 0,0
23.01.2018 08:00:00 2,6 -6,4 13 7 23 12 WNW 0,0
23.01.2018 07:00:00 2,1 -6,4 17 9 21 12 WNW -
23.01.2018 06:00:00 2,3 -6,7 16 8 19 11 WNW 0,0
23.01.2018 05:00:00 2,7 -8,2 13 7 15 8 WNW 0,0
23.01.2018 04:00:00 3,8 -7,8 7 4 15 8 WNW 0,0
23.01.2018 03:00:00 3,4 -7,8 8 4 10 5 WNW 0,0
23.01.2018 02:00:00 3,7 -7,5 9 5 16 9 WNW 0,0
23.01.2018 01:00:00 3,4 -6,7 14 7 20 11 WNW -
23.01.2018 00:00:00 1,2 -2,5 16 9 19 11 WNW 0,0
22.01.2018 23:00:00 2,0 -2,0 14 8 17 9 WNW 0,0
22.01.2018 22:00:00 1,4 -0,7 11 6 28 15 WSW 0,0
22.01.2018 21:00:00 1,8 -0,3 19 10 31 17 W 0,0
22.01.2018 20:00:00 2,1 0,0 20 11 32 17 WSW 0,0
22.01.2018 19:00:00 2,4 -0,3 20 11 34 18 WSW -
22.01.2018 18:00:00 4,4 -0,5 21 11 34 18 WSW 0,0
22.01.2018 17:00:00 6,7 0,0 19 10 36 19 W 0,0
22.01.2018 16:00:00 5,6 0,9 22 12 39 21 W 0,0
22.01.2018 15:00:00 5,8 0,6 23 12 42 23 WSW 0,0
22.01.2018 14:00:00 6,3 -2,2 25 13 40 21 WSW 0,0
22.01.2018 13:00:00 7,4 -3,9 22 12 32 17 NW -
22.01.2018 12:00:00 2,3 0,2 25 13 35 19 WNW 0,0
22.01.2018 11:00:00 -0,6 -2,7 27 15 38 21 WNW 0,0
22.01.2018 10:00:00 -0,7 -3,0 27 14 37 20 WNW 0,0
22.01.2018 09:00:00 0,3 -3,9 30 16 39 21 WNW 0,0
22.01.2018 08:00:00 0,4 -1,7 28 15 36 19 WNW 0,0
22.01.2018 07:00:00 -1,3 -3,6 28 15 35 19 NW -
22.01.2018 06:00:00 0,0 -2,7 27 15 34 18 NW 0,0
22.01.2018 05:00:00 1,2 -2,5 24 13 31 17 NW 0,0
22.01.2018 04:00:00 1,8 -2,5 23 13 30 16 WNW 0,0
22.01.2018 03:00:00 1,6 -2,5 22 12 27 15 NW 0,0
22.01.2018 02:00:00 2,0 -2,0 22 12 27 14 WNW 0,0
22.01.2018 01:00:00 1,5 -1,0 20 11 23 12 NW -
22.01.2018 00:00:00 2,7 0,6 8 4 11 6 WNW 0,0
21.01.2018 23:00:00 1,2 -1,0 10 5 17 9 WNW 0,0
21.01.2018 22:00:00 2,1 0,0 14 8 26 14 WNW 0,0
21.01.2018 21:00:00 2,5 0,4 20 11 35 19 WNW 0,0
21.01.2018 20:00:00 1,7 -0,5 26 14 34 19 NW 0,0
21.01.2018 19:00:00 2,2 0,2 21 12 36 19 W -
21.01.2018 18:00:00 2,4 0,2 27 14 35 19 NW 0,0
21.01.2018 17:00:00 2,8 0,6 19 11 32 17 WSW 0,0
21.01.2018 16:00:00 2,9 0,9 21 12 31 17 WNW 0,0
21.01.2018 15:00:00 2,6 0,4 21 11 32 17 WNW 0,0
21.01.2018 14:00:00 3,0 0,9 20 11 32 17 WSW 0,0
21.01.2018 13:00:00 2,7 0,6 20 11 30 16 SW -
21.01.2018 12:00:00 2,1 0,0 24 13 43 23 WSW 0,0
21.01.2018 11:00:00 1,9 -0,3 29 16 55 30 WSW 0,0
21.01.2018 10:00:00 1,7 -0,5 41 22 59 32 SW 0,1
21.01.2018 09:00:00 1,6 -0,5 37 20 55 30 SW 0,2
21.01.2018 08:00:00 1,7 -0,5 34 18 49 26 SW 0,0
21.01.2018 07:00:00 1,7 -0,5 30 16 45 25 WSW -
21.01.2018 06:00:00 1,7 -0,5 29 16 50 27 WSW 0,0
21.01.2018 05:00:00 1,6 -0,5 36 19 61 33 SW 0,0
21.01.2018 04:00:00 1,8 -0,3 36 19 55 30 SW 0,0
21.01.2018 03:00:00 1,8 -0,3 44 24 72 39 SW 0,0
21.01.2018 02:00:00 1,9 -0,3 50 27 66 35 SW 0,0
21.01.2018 01:00:00 - - - - - - - -
21.01.2018 00:00:00 1,8 -0,3 42 23 57 31 SW 0,0
20.01.2018 23:00:00 2,1 -0,3 42 23 58 31 SW 0,0
20.01.2018 22:00:00 2,1 -0,7 41 22 55 30 SW 0,0
20.01.2018 21:00:00 2,7 -1,2 38 21 52 28 SW 0,0
20.01.2018 20:00:00 3,0 -1,4 33 18 49 26 SW 0,0
20.01.2018 19:00:00 3,2 -2,2 35 19 50 27 SW -
20.01.2018 18:00:00 4,2 -4,5 31 17 50 27 SW 0,0
20.01.2018 17:00:00 5,8 -5,7 35 19 50 27 SW 0,0
20.01.2018 16:00:00 6,1 -6,7 31 17 49 26 SW 0,0
20.01.2018 15:00:00 5,3 -7,1 34 18 51 28 SW 0,0
20.01.2018 14:00:00 3,8 -6,4 34 18 46 25 SW 0,0
20.01.2018 13:00:00 2,4 -10,3 31 17 45 25 SW -
20.01.2018 12:00:00 1,5 -12,8 32 17 44 24 SW 0,0
20.01.2018 11:00:00 0,8 -12,2 29 16 43 23 SW 0,0
20.01.2018 10:00:00 0,5 -9,9 30 16 41 22 SW 0,0
20.01.2018 09:00:00 0,0 -9,0 31 17 46 25 SW 0,0
20.01.2018 08:00:00 -0,8 -3,3 27 14 36 19 SW 0,0
20.01.2018 07:00:00 -0,1 -2,2 24 13 37 20 SW -
20.01.2018 06:00:00 0,5 -1,7 29 15 42 23 SW 0,0
20.01.2018 05:00:00 0,8 -1,4 29 16 90 49 SW 0,0
20.01.2018 04:00:00 1,0 -1,2 27 15 - - SW -
20.01.2018 03:00:00 1,2 -1,2 25 13 36 19 SW 0,0
20.01.2018 02:00:00 1,3 -1,2 26 14 38 21 SW 0,0
20.01.2018 01:00:00 - - - - - - - -
20.01.2018 00:00:00 1,4 -1,0 21 11 29 16 SW 0,0
19.01.2018 23:00:00 1,4 -1,0 21 11 31 17 SW 0,0
19.01.2018 22:00:00 1,3 -0,7 21 11 36 20 SW 0,0
19.01.2018 21:00:00 1,6 -0,5 26 14 42 23 SW 0,0
19.01.2018 20:00:00 1,8 -0,3 24 13 39 21 SW 0,0
19.01.2018 19:00:00 2,0 -0,7 25 14 38 21 SW -
19.01.2018 18:00:00 2,1 -1,2 24 13 45 24 SW 0,0
19.01.2018 17:00:00 2,8 -2,0 32 17 48 26 SW 0,0
19.01.2018 16:00:00 3,9 -1,2 31 17 49 26 SW 0,0
19.01.2018 15:00:00 4,2 -0,7 31 17 49 27 SW 0,0
19.01.2018 14:00:00 2,9 -1,2 38 21 58 31 SW 0,0
19.01.2018 13:00:00 3,2 -2,5 32 18 46 25 SW -
19.01.2018 12:00:00 3,3 -2,2 27 14 42 23 SW 0,0
19.01.2018 11:00:00 1,1 -3,3 34 18 47 26 SW 0,0
19.01.2018 10:00:00 0,6 -4,2 26 14 43 23 SW 0,0
19.01.2018 09:00:00 0,0 -5,1 28 15 45 24 SW 0,0
19.01.2018 08:00:00 1,6 -4,5 26 14 37 20 WSW 0,0
19.01.2018 07:00:00 1,6 -4,8 24 13 40 22 WSW -
19.01.2018 06:00:00 2,1 -4,8 26 14 35 19 SW 0,0
19.01.2018 05:00:00 2,2 -4,8 26 14 37 20 WSW 0,0
19.01.2018 04:00:00 2,7 -5,7 26 14 39 21 WSW 0,0
19.01.2018 03:00:00 2,7 -6,0 24 13 38 20 WSW 0,0
19.01.2018 02:00:00 2,2 -7,8 23 12 32 17 WSW 0,0
19.01.2018 01:00:00 4,0 -8,2 18 10 30 16 WSW -
19.01.2018 00:00:00 3,8 -9,9 19 10 28 15 WSW 0,0
18.01.2018 23:00:00 5,1 -9,0 18 10 32 17 WSW 0,0
18.01.2018 22:00:00 3,0 -9,0 19 11 27 14 WSW 0,0
18.01.2018 21:00:00 2,8 -9,9 21 11 34 19 WSW 0,0
18.01.2018 20:00:00 4,0 -10,3 21 11 29 16 WSW 0,0
18.01.2018 19:00:00 4,3 -11,2 16 8 26 14 WSW -
18.01.2018 18:00:00 5,8 -10,8 17 9 27 15 WSW 0,0
18.01.2018 17:00:00 7,6 -9,9 18 10 28 15 WSW 0,0
18.01.2018 16:00:00 8,2 -9,4 17 9 32 17 WSW 0,0
18.01.2018 15:00:00 8,5 -9,9 16 9 28 15 W 0,0
18.01.2018 14:00:00 9,4 -10,3 10 5 18 10 W 0,0
18.01.2018 13:00:00 9,0 -11,2 7 4 16 8 W -
18.01.2018 12:00:00 8,1 -10,8 8 4 16 9 WSW 0,0
18.01.2018 11:00:00 7,3 -13,9 6 4 11 6 WSW 0,0
18.01.2018 10:00:00 5,6 -16,5 6 4 8 5 WSW 0,0

tt = Température de l'air
td = dewpoint
ff = Vitesse du vent
fx = gusts
dd = Direction du vent
rr = Quantités de précipitations

stations d'obs. à proximité